Time;durP1;ratioP1;P1;durP2;ratioP2;P2;SDS_P1;SDS_P2;PMS_P1;PMS_P2;Temp;Humidity;BMP_temperature;BMP_pressure;BME280_temperature;BME280_humidity;BME280_pressure;Samples;Min_cycle;Max_cycle;Signal;HPM_P1;HPM_P2
2024/02/17 00:01:11;;;;;;;3.40;1.90;;;12.80;91.60;;;;;;5114444;28;20027;-76
2024/02/17 00:03:36;;;;;;;3.42;1.80;;;12.80;91.70;;;;;;5112952;28;20430;-76
2024/02/17 00:06:02;;;;;;;2.80;1.80;;;12.80;91.60;;;;;;5113014;28;20027;-76
2024/02/17 00:08:28;;;;;;;3.85;1.77;;;12.80;91.70;;;;;;5114223;28;20395;-76
2024/02/17 00:10:53;;;;;;;3.00;1.77;;;12.80;91.70;;;;;;5114344;28;20023;-77
2024/02/17 00:13:18;;;;;;;2.90;1.75;;;12.80;91.70;;;;;;5112792;28;20020;-76
2024/02/17 00:15:46;;;;;;;2.50;1.63;;;12.80;91.60;;;;;;5113985;28;20381;-77
2024/02/17 00:18:12;;;;;;;4.10;2.00;;;12.80;91.60;;;;;;5112887;28;20399;-78
2024/02/17 00:20:37;;;;;;;3.17;1.75;;;12.80;91.60;;;;;;5112836;28;20024;-77
2024/02/17 00:23:03;;;;;;;3.47;1.60;;;12.80;91.60;;;;;;5113780;28;20020;-75
2024/02/17 00:25:28;;;;;;;2.92;1.60;;;12.80;91.60;;;;;;5113935;28;20035;-77
2024/02/17 00:27:54;;;;;;;2.63;1.58;;;12.80;91.70;;;;;;5112419;28;20023;-76
2024/02/17 00:30:20;;;;;;;3.05;1.73;;;12.80;91.60;;;;;;5112636;28;20103;-76
2024/02/17 00:32:46;;;;;;;3.00;1.60;;;12.80;91.70;;;;;;5113517;28;20019;-76
2024/02/17 00:35:12;;;;;;;3.92;1.90;;;12.80;91.60;;;;;;5113645;28;20048;-76
2024/02/17 00:37:37;;;;;;;3.30;1.92;;;12.80;91.70;;;;;;5112400;28;20032;-77
2024/02/17 00:40:06;;;;;;;3.80;1.88;;;12.80;91.60;;;;;;5113759;28;20035;-77
2024/02/17 00:42:31;;;;;;;3.42;1.92;;;12.80;91.60;;;;;;5113566;28;20489;-75
2024/02/17 00:44:57;;;;;;;3.20;1.80;;;12.80;91.60;;;;;;5113638;28;20109;-75
2024/02/17 00:47:22;;;;;;;3.30;1.98;;;12.80;91.90;;;;;;5111976;28;20471;-75
2024/02/17 00:49:48;;;;;;;3.28;1.80;;;12.80;91.60;;;;;;5113838;28;20114;-75
2024/02/17 00:52:14;;;;;;;3.13;1.70;;;12.80;91.60;;;;;;5112212;28;20030;-76
2024/02/17 00:54:39;;;;;;;3.60;1.90;;;12.80;91.60;;;;;;5113016;28;20031;-75
2024/02/17 00:57:05;;;;;;;2.60;1.70;;;12.80;91.60;;;;;;5113310;28;20125;-76
2024/02/17 00:59:30;;;;;;;3.78;2.05;;;12.80;91.60;;;;;;5113225;28;20012;-77
2024/02/17 01:01:58;;;;;;;3.95;2.10;;;12.80;91.60;;;;;;5113441;28;20384;-76
2024/02/17 01:04:23;;;;;;;3.17;1.90;;;12.80;91.60;;;;;;5111399;28;20024;-76
2024/02/17 01:06:49;;;;;;;3.33;1.80;;;12.80;91.70;;;;;;5113110;28;20042;-77
2024/02/17 01:09:16;;;;;;;3.50;2.00;;;12.80;91.60;;;;;;5111810;28;20043;-75
2024/02/17 01:11:42;;;;;;;3.05;1.70;;;12.80;91.60;;;;;;5113114;28;20019;-75
2024/02/17 01:14:07;;;;;;;3.40;2.03;;;12.80;91.70;;;;;;5112873;28;20043;-76
2024/02/17 01:16:33;;;;;;;3.35;1.80;;;12.80;91.70;;;;;;5111424;28;20028;-76
2024/02/17 01:18:58;;;;;;;3.35;1.80;;;12.80;91.70;;;;;;5111491;28;20023;-76
2024/02/17 01:21:24;;;;;;;3.13;1.80;;;12.80;91.70;;;;;;5112673;28;20399;-76
2024/02/17 01:23:49;;;;;;;3.38;2.00;;;12.80;91.70;;;;;;5112730;28;20482;-76
2024/02/17 01:26:15;;;;;;;4.15;2.10;;;12.80;91.70;;;;;;5111929;28;20020;-76
2024/02/17 01:28:40;;;;;;;3.53;1.98;;;12.80;91.70;;;;;;5111496;28;20024;-76
2024/02/17 01:31:06;;;;;;;3.03;1.75;;;12.80;91.70;;;;;;5112969;28;20024;-75
2024/02/17 01:33:31;;;;;;;4.15;2.13;;;12.80;91.70;;;;;;5112932;28;20093;-77
2024/02/17 01:35:57;;;;;;;3.13;1.95;;;12.80;91.70;;;;;;5113151;28;20023;-77
2024/02/17 01:38:22;;;;;;;3.38;1.83;;;12.80;91.70;;;;;;5111746;28;20043;-76
2024/02/17 01:40:48;;;;;;;3.95;2.20;;;12.80;91.60;;;;;;5111274;28;20033;-75
2024/02/17 01:43:14;;;;;;;3.58;2.20;;;12.80;91.70;;;;;;5110936;28;20028;-76
2024/02/17 01:45:39;;;;;;;3.78;2.05;;;12.80;91.70;;;;;;5112376;28;20039;-76
2024/02/17 01:48:05;;;;;;;3.53;2.10;;;12.80;91.70;;;;;;5112759;28;20498;-76
2024/02/17 01:50:31;;;;;;;4.43;2.30;;;12.80;91.70;;;;;;5111244;28;20059;-76
2024/02/17 01:52:58;;;;;;;3.85;2.10;;;12.80;91.70;;;;;;5112314;28;20027;-75
2024/02/17 01:55:24;;;;;;;4.18;2.28;;;12.80;91.70;;;;;;5111962;28;20073;-76
2024/02/17 01:57:51;;;;;;;4.22;1.92;;;12.80;91.70;;;;;;5110952;28;20024;-76
2024/02/17 02:00:17;;;;;;;3.70;1.90;;;12.80;91.70;;;;;;5110522;28;20030;-77
2024/02/17 02:02:47;;;;;;;3.50;2.00;;;12.80;91.70;;;;;;5112246;28;20020;-76
2024/02/17 02:05:13;;;;;;;4.22;2.10;;;12.80;91.70;;;;;;5111002;28;20027;-75
2024/02/17 02:07:39;;;;;;;3.83;2.00;;;12.80;91.90;;;;;;5111276;28;20055;-77
2024/02/17 02:10:05;;;;;;;3.38;2.00;;;12.80;91.70;;;;;;5113062;28;20027;-78
2024/02/17 02:12:30;;;;;;;4.28;2.17;;;12.80;91.70;;;;;;5111739;28;20411;-76
2024/02/17 02:15:04;;;;;;;4.45;2.45;;;12.80;91.70;;;;;;5110464;28;20020;-77
2024/02/17 02:17:29;;;;;;;3.47;2.03;;;12.80;91.70;;;;;;5109821;28;20518;-77
2024/02/17 02:19:55;;;;;;;3.22;2.00;;;12.80;91.70;;;;;;5112222;28;20031;-75
2024/02/17 02:22:20;;;;;;;4.10;2.20;;;12.80;91.70;;;;;;5110410;28;20020;-77
2024/02/17 02:24:48;;;;;;;3.45;1.98;;;12.80;91.70;;;;;;5110156;28;20035;-77
2024/02/17 02:27:13;;;;;;;4.00;2.20;;;12.80;91.70;;;;;;5110777;28;20030;-77
2024/02/17 02:29:47;;;;;;;3.70;2.05;;;12.70;91.60;;;;;;5110024;28;20111;-76
2024/02/17 02:32:12;;;;;;;3.75;2.10;;;12.80;91.70;;;;;;5110273;28;20023;-75
2024/02/17 02:34:38;;;;;;;3.35;1.95;;;12.80;91.70;;;;;;5109949;28;20395;-78
2024/02/17 02:37:04;;;;;;;3.65;2.10;;;12.80;91.70;;;;;;5110475;28;20034;-75
2024/02/17 02:39:29;;;;;;;3.15;1.90;;;12.80;91.70;;;;;;5111440;28;20478;-75
2024/02/17 02:41:54;;;;;;;3.95;2.33;;;12.80;91.70;;;;;;5109921;28;20027;-77
2024/02/17 02:44:20;;;;;;;4.43;2.25;;;12.80;91.70;;;;;;5110076;28;20032;-76
2024/02/17 02:46:45;;;;;;;3.88;2.00;;;12.80;91.70;;;;;;5109880;28;20401;-75
2024/02/17 02:49:11;;;;;;;4.70;2.17;;;12.80;91.70;;;;;;5111364;28;20031;-77
2024/02/17 02:51:36;;;;;;;3.80;2.10;;;12.80;91.70;;;;;;5110147;28;20451;-75
2024/02/17 02:54:02;;;;;;;4.25;2.30;;;12.80;91.70;;;;;;5109959;28;20039;-75
2024/02/17 02:56:28;;;;;;;4.10;2.40;;;12.80;91.70;;;;;;5109704;28;20111;-77
2024/02/17 02:58:53;;;;;;;3.92;2.13;;;12.80;91.70;;;;;;5110161;28;20031;-75
2024/02/17 03:01:18;;;;;;;3.58;2.10;;;12.80;91.70;;;;;;5111228;28;20631;-76
2024/02/17 03:03:48;;;;;;;4.10;2.40;;;12.80;91.70;;;;;;5109502;28;20059;-75
2024/02/17 03:06:13;;;;;;;4.10;2.05;;;12.80;91.70;;;;;;5109913;28;20387;-75
2024/02/17 03:08:38;;;;;;;3.88;2.20;;;12.80;91.70;;;;;;5107412;28;20088;-76
2024/02/17 03:11:06;;;;;;;3.67;2.00;;;12.80;91.70;;;;;;5103416;28;20365;-76
2024/02/17 03:13:34;;;;;;;4.20;2.30;;;12.80;91.70;;;;;;5108605;28;20031;-75
2024/02/17 03:15:59;;;;;;;3.78;2.17;;;12.80;91.70;;;;;;5109817;28;20019;-76
2024/02/17 03:18:24;;;;;;;4.00;2.25;;;12.80;91.70;;;;;;5109670;28;20521;-77
2024/02/17 03:20:50;;;;;;;4.28;2.28;;;12.80;91.70;;;;;;5109770;28;20027;-76
2024/02/17 03:23:15;;;;;;;4.38;2.35;;;12.80;91.70;;;;;;5109637;28;20027;-76
2024/02/17 03:25:41;;;;;;;4.10;2.38;;;12.80;91.70;;;;;;5109796;28;20077;-78
2024/02/17 03:28:06;;;;;;;4.53;2.30;;;12.80;91.70;;;;;;5112901;28;20240;-76
2024/02/17 03:30:32;;;;;;;4.20;2.25;;;12.80;91.70;;;;;;5113831;28;20024;-75
2024/02/17 03:32:57;;;;;;;5.30;2.90;;;12.80;91.70;;;;;;5114647;28;20034;-77
2024/02/17 03:35:23;;;;;;;4.63;2.30;;;12.80;91.90;;;;;;5113482;28;20130;-76
2024/02/17 03:37:48;;;;;;;4.75;2.40;;;12.80;91.70;;;;;;5113764;28;20103;-77
2024/02/17 03:40:15;;;;;;;3.05;2.00;;;12.70;91.60;;;;;;5115112;28;20027;-76
2024/02/17 03:42:40;;;;;;;4.38;2.50;;;12.80;91.70;;;;;;5114677;28;20106;-78
2024/02/17 03:45:06;;;;;;;4.18;2.38;;;12.80;91.70;;;;;;5113692;28;20243;-75
2024/02/17 03:47:31;;;;;;;4.00;2.33;;;12.80;91.70;;;;;;5113059;28;20024;-76
2024/02/17 03:49:57;;;;;;;5.50;2.72;;;12.80;91.70;;;;;;5114755;28;20035;-75
2024/02/17 03:52:22;;;;;;;3.53;2.00;;;12.80;91.70;;;;;;5114406;28;20096;-75
2024/02/17 03:54:48;;;;;;;3.88;2.13;;;12.80;91.70;;;;;;5116344;28;20511;-76
2024/02/17 03:57:15;;;;;;;3.92;2.13;;;12.80;91.70;;;;;;5115531;28;20015;-75
2024/02/17 03:59:41;;;;;;;4.75;2.67;;;12.80;91.70;;;;;;5115781;28;20027;-76
2024/02/17 04:02:06;;;;;;;4.90;2.40;;;12.80;91.70;;;;;;5115015;28;20384;-76
2024/02/17 04:04:32;;;;;;;4.32;2.40;;;12.80;91.70;;;;;;5115499;28;20024;-77
2024/02/17 04:06:58;;;;;;;4.68;2.45;;;12.80;91.70;;;;;;5115475;28;20034;-76
2024/02/17 04:09:23;;;;;;;4.63;2.30;;;12.80;91.70;;;;;;5114916;28;20038;-77
2024/02/17 04:11:49;;;;;;;4.78;2.50;;;12.80;91.70;;;;;;5114980;28;20028;-77
2024/02/17 04:14:14;;;;;;;5.18;2.70;;;12.70;91.60;;;;;;5114397;28;20023;-77
2024/02/17 04:16:39;;;;;;;4.88;2.65;;;12.80;91.70;;;;;;5116370;28;20442;-76
2024/02/17 04:19:05;;;;;;;5.03;2.70;;;12.80;91.70;;;;;;5115120;28;20031;-78
2024/02/17 04:21:30;;;;;;;4.43;2.53;;;12.80;91.70;;;;;;5116647;28;20037;-76
2024/02/17 04:23:56;;;;;;;4.65;2.40;;;12.80;91.70;;;;;;5116368;28;20023;-76
2024/02/17 04:26:21;;;;;;;4.63;2.53;;;12.80;91.70;;;;;;5114947;28;20471;-76
2024/02/17 04:28:47;;;;;;;5.10;2.78;;;12.80;91.70;;;;;;5116297;28;20023;-77
2024/02/17 04:31:12;;;;;;;4.93;2.58;;;12.80;91.70;;;;;;5116328;28;20031;-76
2024/02/17 04:33:38;;;;;;;4.70;2.55;;;12.80;91.70;;;;;;5114845;28;20035;-76
2024/02/17 04:36:08;;;;;;;4.97;2.45;;;12.80;91.70;;;;;;5114638;28;20076;-77
2024/02/17 04:38:35;;;;;;;5.93;2.90;;;12.80;91.70;;;;;;5114401;28;20031;-78
2024/02/17 04:41:01;;;;;;;4.57;2.60;;;12.70;91.60;;;;;;5114561;28;20386;-77
2024/02/17 04:43:27;;;;;;;4.57;2.40;;;12.80;91.70;;;;;;5114877;28;20023;-77
2024/02/17 04:45:52;;;;;;;4.90;2.42;;;12.80;91.60;;;;;;5114718;28;20026;-77
2024/02/17 04:48:18;;;;;;;5.53;3.05;;;12.80;91.70;;;;;;5114385;28;20042;-77
2024/02/17 04:50:43;;;;;;;4.97;2.70;;;12.80;91.70;;;;;;5115344;28;20024;-76
2024/02/17 04:53:09;;;;;;;5.78;2.90;;;12.80;91.70;;;;;;5114009;28;20035;-77
2024/02/17 04:55:34;;;;;;;4.63;2.70;;;12.70;91.60;;;;;;5113815;28;20032;-76
2024/02/17 04:58:00;;;;;;;4.53;2.42;;;12.80;91.70;;;;;;5114555;28;20514;-77
2024/02/17 05:00:25;;;;;;;5.22;2.88;;;12.80;91.70;;;;;;5114086;28;20074;-77
2024/02/17 05:02:51;;;;;;;4.78;2.40;;;12.80;91.70;;;;;;5113809;28;20023;-78
2024/02/17 05:05:19;;;;;;;4.88;2.53;;;12.80;91.70;;;;;;5114062;28;20023;-76
2024/02/17 05:07:45;;;;;;;4.53;2.40;;;12.80;91.70;;;;;;5111783;28;20050;-77
2024/02/17 05:10:10;;;;;;;5.00;2.80;;;12.80;91.70;;;;;;5106731;28;20491;-77
2024/02/17 05:12:36;;;;;;;5.15;3.00;;;12.80;91.70;;;;;;5105080;28;20450;-77
2024/02/17 05:15:05;;;;;;;5.70;2.63;;;12.80;91.70;;;;;;5114157;28;20110;-76
2024/02/17 05:17:30;;;;;;;5.10;2.70;;;12.80;91.70;;;;;;5111812;28;20080;-76
2024/02/17 05:19:56;;;;;;;5.20;2.80;;;12.80;91.70;;;;;;5112997;28;20563;-75
2024/02/17 05:22:22;;;;;;;5.18;2.80;;;12.80;91.70;;;;;;5106938;28;20034;-76
2024/02/17 05:24:47;;;;;;;5.05;2.72;;;12.80;91.70;;;;;;5096276;28;20024;-75
2024/02/17 05:27:13;;;;;;;4.97;2.70;;;12.80;91.70;;;;;;5106686;28;20038;-77
2024/02/17 05:29:39;;;;;;;4.78;2.85;;;12.80;91.70;;;;;;5112838;28;20038;-75
2024/02/17 05:32:05;;;;;;;5.40;2.90;;;12.80;91.70;;;;;;5112365;28;20016;-75
2024/02/17 05:34:31;;;;;;;4.82;2.65;;;12.80;91.70;;;;;;5111356;28;20029;-77
2024/02/17 05:36:56;;;;;;;5.10;2.92;;;12.80;91.90;;;;;;5111268;28;20060;-76
2024/02/17 05:39:23;;;;;;;5.47;3.30;;;12.80;91.70;;;;;;5111239;28;20411;-76
2024/02/17 05:41:50;;;;;;;6.30;3.40;;;12.80;91.70;;;;;;5112834;28;20019;-76
2024/02/17 05:44:15;;;;;;;5.25;2.85;;;12.80;91.70;;;;;;5112568;28;20024;-75
2024/02/17 05:46:41;;;;;;;5.40;2.88;;;12.80;91.70;;;;;;5112431;28;20084;-76
2024/02/17 05:49:06;;;;;;;5.38;2.70;;;12.80;91.70;;;;;;5112510;28;20035;-77
2024/02/17 05:51:31;;;;;;;4.63;2.67;;;12.80;91.70;;;;;;5111457;28;20027;-76
2024/02/17 05:53:57;;;;;;;6.47;3.28;;;12.80;91.90;;;;;;5111062;28;20236;-76
2024/02/17 05:56:23;;;;;;;6.45;3.25;;;12.80;91.70;;;;;;5112211;28;20476;-75
2024/02/17 05:58:49;;;;;;;5.35;3.00;;;12.80;91.90;;;;;;5111224;28;20020;-75
2024/02/17 06:01:14;;;;;;;4.88;2.70;;;12.80;91.70;;;;;;5110823;28;20365;-75
2024/02/17 06:03:40;;;;;;;5.55;2.80;;;12.80;91.70;;;;;;5110406;28;20033;-75
2024/02/17 06:06:05;;;;;;;5.20;2.65;;;12.80;91.70;;;;;;5110852;28;20088;-75
2024/02/17 06:08:31;;;;;;;4.88;2.72;;;12.80;91.70;;;;;;5111908;28;20106;-75
2024/02/17 06:10:56;;;;;;;5.40;2.90;;;12.80;91.70;;;;;;5110955;28;20024;-76
2024/02/17 06:13:23;;;;;;;5.93;3.03;;;12.80;91.70;;;;;;5111625;28;20398;-77
2024/02/17 06:15:48;;;;;;;5.13;2.75;;;12.70;91.60;;;;;;5110499;28;20499;-76
2024/02/17 06:21:10;;;;;;;4.82;2.80;;;12.80;91.70;;;;;;5112016;28;20611;-79
2024/02/17 06:23:36;;;;;;;5.22;2.58;;;12.80;91.70;;;;;;5105907;28;20023;-76
2024/02/17 06:26:05;;;;;;;5.32;2.80;;;12.70;91.60;;;;;;5105000;28;20038;-76
2024/02/17 06:28:31;;;;;;;4.78;2.70;;;12.80;91.70;;;;;;5107074;28;20028;-77
2024/02/17 06:30:56;;;;;;;4.95;2.70;;;12.80;91.70;;;;;;5098042;28;20028;-77
2024/02/17 06:33:22;;;;;;;5.47;2.83;;;12.80;91.70;;;;;;5104463;28;20441;-75
2024/02/17 06:35:47;;;;;;;5.03;2.85;;;12.80;91.70;;;;;;5105864;28;20319;-77
2024/02/17 06:38:15;;;;;;;5.22;3.05;;;12.80;91.70;;;;;;5107293;28;20487;-77
2024/02/17 06:40:41;;;;;;;5.05;2.78;;;12.80;91.70;;;;;;5109449;28;20054;-76
2024/02/17 06:43:06;;;;;;;5.35;2.80;;;12.80;91.70;;;;;;5099117;28;20044;-76
2024/02/17 06:45:32;;;;;;;4.60;2.60;;;12.80;91.70;;;;;;5085910;28;20085;-77
2024/02/17 06:47:57;;;;;;;4.60;2.60;;;12.80;91.70;;;;;;5087627;28;20024;-76
2024/02/17 06:50:23;;;;;;;5.57;3.17;;;12.80;91.70;;;;;;5085285;28;20035;-75
2024/02/17 06:52:48;;;;;;;5.90;3.20;;;12.80;91.70;;;;;;5083824;28;20484;-76
2024/02/17 06:55:14;;;;;;;5.97;3.10;;;12.80;91.70;;;;;;5083712;28;20032;-76
2024/02/17 06:57:39;;;;;;;5.90;2.75;;;12.80;91.60;;;;;;5083928;28;20056;-76
2024/02/17 07:00:05;;;;;;;6.20;3.40;;;12.80;91.70;;;;;;5086164;28;20044;-77
2024/02/17 07:02:33;;;;;;;5.10;2.92;;;12.80;91.70;;;;;;5086581;28;20062;-77
2024/02/17 07:04:58;;;;;;;5.65;3.53;;;12.90;91.70;;;;;;5087738;28;20043;-77
2024/02/17 07:07:24;;;;;;;5.30;3.00;;;12.80;91.70;;;;;;5086087;28;20111;-77
2024/02/17 07:09:49;;;;;;;5.43;2.85;;;12.80;91.70;;;;;;5087898;28;20101;-76
2024/02/17 07:12:15;;;;;;;6.25;3.13;;;12.80;91.70;;;;;;5083555;28;20028;-76
2024/02/17 07:14:40;;;;;;;5.43;3.00;;;12.80;91.70;;;;;;5084971;28;20371;-76
2024/02/17 07:17:06;;;;;;;5.32;2.97;;;12.70;91.60;;;;;;5087939;28;20032;-77
2024/02/17 07:19:32;;;;;;;5.95;2.95;;;12.70;91.60;;;;;;5085357;28;20024;-77
2024/02/17 07:21:58;;;;;;;5.63;3.00;;;12.70;91.60;;;;;;5084529;28;20028;-77
2024/02/17 07:24:23;;;;;;;5.30;2.90;;;12.70;91.60;;;;;;5085244;28;20489;-75
2024/02/17 07:26:53;;;;;;;5.45;3.08;;;12.80;91.70;;;;;;5092787;28;20035;-78
2024/02/17 07:29:19;;;;;;;5.30;2.75;;;12.80;91.60;;;;;;5104117;28;20538;-76
2024/02/17 07:31:45;;;;;;;5.32;2.90;;;12.80;91.70;;;;;;5104937;28;20134;-76
2024/02/17 07:34:11;;;;;;;5.38;3.03;;;12.80;91.70;;;;;;5106600;28;20028;-77
2024/02/17 07:36:38;;;;;;;4.90;2.80;;;12.70;91.60;;;;;;5107831;28;20032;-75
2024/02/17 07:39:03;;;;;;;5.60;3.00;;;12.80;91.70;;;;;;5106220;28;20059;-78
2024/02/17 07:41:29;;;;;;;5.60;2.97;;;12.80;91.60;;;;;;5105829;28;20019;-77
2024/02/17 07:43:55;;;;;;;5.47;3.05;;;12.80;91.60;;;;;;5105903;28;20031;-79
2024/02/17 07:46:20;;;;;;;5.50;2.90;;;12.80;91.60;;;;;;5106469;28;20076;-77
2024/02/17 07:48:46;;;;;;;6.05;2.88;;;12.80;91.60;;;;;;5107087;28;20035;-76
2024/02/17 07:51:12;;;;;;;5.68;2.70;;;12.80;91.60;;;;;;5105602;28;20031;-76
2024/02/17 07:53:38;;;;;;;5.53;3.22;;;12.80;91.60;;;;;;5106803;28;20031;-76
2024/02/17 07:56:04;;;;;;;5.28;3.08;;;12.80;91.60;;;;;;5106800;28;20404;-77
2024/02/17 07:58:30;;;;;;;4.72;2.75;;;12.80;91.60;;;;;;5107182;28;20024;-77
2024/02/17 08:00:56;;;;;;;5.50;3.10;;;12.80;91.60;;;;;;5106767;28;20034;-78
2024/02/17 08:03:21;;;;;;;4.45;2.50;;;12.80;91.60;;;;;;5109733;28;20629;-77
2024/02/17 08:05:48;;;;;;;5.95;3.17;;;12.80;91.60;;;;;;5107810;28;20044;-76
2024/02/17 08:08:14;;;;;;;5.25;2.90;;;12.80;91.60;;;;;;5108741;28;20084;-76
2024/02/17 08:10:40;;;;;;;5.60;3.17;;;12.80;91.60;;;;;;5110174;28;20031;-76
2024/02/17 08:13:05;;;;;;;5.60;3.30;;;12.80;91.60;;;;;;5107679;28;20034;-77
2024/02/17 08:15:31;;;;;;;5.07;2.60;;;12.80;91.60;;;;;;5114245;28;20032;-77
2024/02/17 08:17:56;;;;;;;5.78;3.35;;;12.80;91.60;;;;;;5111627;28;20023;-78
2024/02/17 08:20:22;;;;;;;5.75;3.50;;;12.70;91.60;;;;;;5112589;28;20582;-77
2024/02/17 08:22:48;;;;;;;5.45;3.03;;;12.80;91.60;;;;;;5109801;28;20028;-78
2024/02/17 08:25:14;;;;;;;5.22;3.00;;;12.80;91.60;;;;;;5108781;28;20027;-77
2024/02/17 08:27:43;;;;;;;5.68;3.08;;;12.80;91.60;;;;;;5108502;28;20035;-77
2024/02/17 08:30:09;;;;;;;5.75;3.13;;;12.80;91.60;;;;;;5110126;28;20031;-77
2024/02/17 08:32:34;;;;;;;5.15;2.75;;;12.80;91.60;;;;;;5108138;28;20044;-77
2024/02/17 08:35:00;;;;;;;5.50;3.10;;;12.90;91.70;;;;;;5108530;28;20105;-77
2024/02/17 08:37:26;;;;;;;5.22;3.05;;;12.80;91.60;;;;;;5107583;28;20169;-77
2024/02/17 08:39:51;;;;;;;6.03;3.03;;;12.80;91.60;;;;;;5110589;28;20391;-77
2024/02/17 08:42:17;;;;;;;5.63;3.30;;;12.90;91.60;;;;;;5110826;28;20388;-77
2024/02/17 08:44:43;;;;;;;5.75;3.03;;;12.90;91.60;;;;;;5107747;28;20031;-75
2024/02/17 08:47:09;;;;;;;5.43;2.90;;;12.80;91.60;;;;;;5109711;28;20034;-76
2024/02/17 08:49:34;;;;;;;6.18;3.15;;;12.80;91.60;;;;;;5109152;28;20119;-75
2024/02/17 08:52:01;;;;;;;5.40;3.17;;;12.80;91.60;;;;;;5111734;28;20059;-78
2024/02/17 08:54:27;;;;;;;6.00;3.42;;;12.90;91.60;;;;;;5110411;28;20043;-76
2024/02/17 08:56:53;;;;;;;5.50;3.10;;;12.80;91.60;;;;;;5110287;28;20032;-78
2024/02/17 08:59:19;;;;;;;6.13;3.50;;;12.90;91.60;;;;;;5111335;28;20023;-77
2024/02/17 09:01:45;;;;;;;5.03;2.97;;;12.90;91.50;;;;;;5109770;28;20176;-77
2024/02/17 09:04:10;;;;;;;5.80;3.00;;;12.90;91.50;;;;;;5108677;28;20031;-77
2024/02/17 09:06:36;;;;;;;6.30;3.05;;;13.00;91.50;;;;;;5108744;28;20066;-78
2024/02/17 09:09:03;;;;;;;5.78;3.13;;;13.00;91.40;;;;;;5108074;28;20036;-77
2024/02/17 09:11:29;;;;;;;5.10;2.63;;;13.00;91.20;;;;;;5108088;28;20032;-76
2024/02/17 09:13:54;;;;;;;5.45;2.90;;;13.10;91.00;;;;;;5109038;28;20032;-77
2024/02/17 09:16:20;;;;;;;4.88;2.88;;;13.10;90.90;;;;;;5108691;28;20514;-76
2024/02/17 09:18:45;;;;;;;5.07;2.65;;;13.20;91.00;;;;;;5110349;28;20030;-76
2024/02/17 09:21:11;;;;;;;5.43;3.08;;;13.20;90.90;;;;;;5110023;28;20123;-77
2024/02/17 09:23:36;;;;;;;5.20;2.65;;;13.20;91.00;;;;;;5109670;28;20031;-77
2024/02/17 09:26:02;;;;;;;5.50;3.17;;;13.20;90.90;;;;;;5110768;28;20397;-78
2024/02/17 09:28:28;;;;;;;5.18;3.00;;;13.20;91.00;;;;;;5112062;28;20038;-77
2024/02/17 09:30:53;;;;;;;5.50;3.03;;;13.20;91.00;;;;;;5112169;28;21033;-76
2024/02/17 09:33:28;;;;;;;6.20;3.10;;;13.20;91.00;;;;;;5111109;28;20039;-77
2024/02/17 09:35:53;;;;;;;5.03;2.97;;;13.20;91.00;;;;;;5109644;28;20023;-77
2024/02/17 09:38:19;;;;;;;5.28;3.10;;;13.20;91.00;;;;;;5110408;28;20019;-79
2024/02/17 09:40:45;;;;;;;5.00;2.70;;;13.20;91.00;;;;;;5112560;28;20061;-77
2024/02/17 09:43:11;;;;;;;4.93;2.65;;;13.20;91.00;;;;;;5111607;28;20024;-78
2024/02/17 09:45:37;;;;;;;5.25;2.90;;;13.20;90.90;;;;;;5110989;28;20081;-79
2024/02/17 09:48:05;;;;;;;4.88;2.80;;;13.20;90.90;;;;;;5111862;28;20156;-77
2024/02/17 09:50:31;;;;;;;4.78;2.63;;;13.20;90.80;;;;;;5110054;28;20045;-79
2024/02/17 09:53:01;;;;;;;5.63;2.88;;;13.30;90.80;;;;;;5109864;28;20076;-77
2024/02/17 09:55:27;;;;;;;5.93;2.63;;;13.30;90.80;;;;;;5109910;28;20034;-77
2024/02/17 09:57:53;;;;;;;5.68;3.20;;;13.30;90.80;;;;;;5113117;28;20095;-77
2024/02/17 10:00:19;;;;;;;5.80;3.40;;;13.40;90.70;;;;;;5113384;28;20114;-77
2024/02/17 10:02:44;;;;;;;6.13;3.58;;;13.40;90.70;;;;;;5112275;28;20376;-78
2024/02/17 10:05:10;;;;;;;5.65;3.45;;;13.40;90.60;;;;;;5112125;28;20031;-77
2024/02/17 10:07:50;;;;;;;6.93;3.70;;;13.50;90.50;;;;;;5110762;28;20020;-77
2024/02/17 10:10:18;;;;;;;5.95;3.28;;;13.50;90.50;;;;;;5112990;28;20091;-77
2024/02/17 10:12:52;;;;;;;7.72;3.63;;;13.50;90.40;;;;;;5110381;28;20498;-78
2024/02/17 10:15:19;;;;;;;5.85;2.88;;;13.60;90.40;;;;;;5110526;28;20035;-77
2024/02/17 10:17:46;;;;;;;6.53;3.40;;;13.60;90.30;;;;;;5111734;28;20066;-77
2024/02/17 10:20:12;;;;;;;9.90;3.92;;;13.70;90.30;;;;;;5110065;28;20047;-77
2024/02/17 10:22:38;;;;;;;20.67;5.20;;;13.70;90.30;;;;;;5112197;28;20092;-76
2024/02/17 10:25:05;;;;;;;15.88;4.95;;;13.70;90.20;;;;;;5109866;28;20028;-76
2024/02/17 10:27:32;;;;;;;13.70;5.85;;;13.70;90.30;;;;;;5110651;28;20031;-77
2024/02/17 10:30:16;;;;;;;14.40;6.40;;;13.70;90.20;;;;;;5110285;28;20085;-77
2024/02/17 10:32:42;;;;;;;15.65;6.18;;;13.80;90.20;;;;;;5112354;28;20019;-77
2024/02/17 10:35:09;;;;;;;19.42;7.53;;;13.80;90.10;;;;;;5110789;28;20020;-78
2024/02/17 10:37:38;;;;;;;19.02;7.53;;;13.80;90.10;;;;;;5107591;28;20064;-76
2024/02/17 10:40:08;;;;;;;20.83;7.80;;;13.90;90.10;;;;;;5092553;28;20031;-77
2024/02/17 10:42:34;;;;;;;17.60;8.00;;;13.90;90.00;;;;;;5108527;28;20016;-77
2024/02/17 10:45:00;;;;;;;19.30;8.70;;;14.00;90.20;;;;;;5091870;28;20614;-77
2024/02/17 10:47:35;;;;;;;14.65;7.70;;;14.00;90.00;;;;;;5092015;28;20024;-76
2024/02/17 10:50:19;;;;;;;19.17;8.20;;;13.90;90.00;;;;;;5092047;28;20093;-76
2024/02/17 10:52:49;;;;;;;25.80;9.45;;;13.90;90.00;;;;;;5098386;28;20051;-75
2024/02/17 10:55:18;;;;;;;19.05;8.68;;;13.90;90.00;;;;;;5113235;28;20110;-76
2024/02/17 10:57:54;;;;;;;21.95;8.10;;;14.00;90.00;;;;;;5112081;28;20030;-76
2024/02/17 11:00:21;;;;;;;20.73;7.80;;;14.00;90.00;;;;;;5113934;28;20058;-77
2024/02/17 11:03:01;;;;;;;18.80;8.40;;;14.00;89.90;;;;;;5111674;28;20022;-76
2024/02/17 11:05:27;;;;;;;17.20;7.57;;;14.00;89.90;;;;;;5113267;28;20394;-79
2024/02/17 11:07:53;;;;;;;20.33;7.45;;;13.90;89.90;;;;;;5112159;28;20027;-78
2024/02/17 11:10:29;;;;;;;17.63;7.75;;;13.90;89.90;;;;;;5111828;28;20028;-76
2024/02/17 11:12:55;;;;;;;17.48;7.57;;;13.90;89.90;;;;;;5112079;28;20059;-76
2024/02/17 11:15:22;;;;;;;21.15;8.35;;;13.90;90.00;;;;;;5111343;28;20051;-76
2024/02/17 11:17:51;;;;;;;13.38;7.32;;;13.90;90.00;;;;;;5108993;28;20012;-76
2024/02/17 11:20:18;;;;;;;14.93;7.15;;;13.90;90.00;;;;;;5093662;28;20020;-76
2024/02/17 11:22:53;;;;;;;17.08;7.85;;;14.00;89.90;;;;;;5092834;28;20016;-77
2024/02/17 11:25:35;;;;;;;19.05;7.57;;;13.90;89.80;;;;;;5109068;28;20320;-76
2024/02/17 11:28:08;;;;;;;14.80;7.38;;;14.00;89.90;;;;;;5109908;28;20016;-76
2024/02/17 11:30:56;;;;;;;18.70;7.47;;;14.00;89.70;;;;;;5109517;28;20023;-76
2024/02/17 11:33:30;;;;;;;17.02;7.13;;;14.00;89.60;;;;;;5101719;28;20051;-76
2024/02/17 11:35:57;;;;;;;18.40;7.22;;;14.10;89.50;;;;;;5093878;28;20028;-75
2024/02/17 11:38:25;;;;;;;12.88;6.35;;;14.10;89.40;;;;;;5089040;28;20409;-76
2024/02/17 11:40:56;;;;;;;12.70;7.05;;;14.10;89.30;;;;;;5089218;28;20028;-76
2024/02/17 11:43:27;;;;;;;11.70;6.72;;;14.20;89.10;;;;;;5088801;28;20024;-76
2024/02/17 11:45:54;;;;;;;12.18;7.15;;;14.20;89.00;;;;;;5089413;28;20035;-77
2024/02/17 11:48:21;;;;;;;11.50;6.43;;;14.20;89.00;;;;;;5090001;28;20035;-77
2024/02/17 11:50:46;;;;;;;12.65;6.85;;;14.20;89.00;;;;;;5093349;28;20480;-76
2024/02/17 11:53:12;;;;;;;13.07;6.35;;;14.20;89.00;;;;;;5105594;28;20069;-76
2024/02/17 11:55:38;;;;;;;14.10;6.63;;;14.10;89.00;;;;;;5116914;28;20028;-75
2024/02/17 11:58:05;;;;;;;11.82;6.50;;;14.10;89.20;;;;;;5115909;28;20554;-77
2024/02/17 12:00:32;;;;;;;10.80;6.38;;;14.10;89.40;;;;;;5115970;28;20043;-77
2024/02/17 12:02:58;;;;;;;13.48;6.45;;;14.10;89.50;;;;;;5117232;28;20019;-78
2024/02/17 12:05:23;;;;;;;13.57;6.05;;;14.00;89.60;;;;;;5117423;28;20035;-77
2024/02/17 12:07:50;;;;;;;10.55;6.38;;;14.00;89.80;;;;;;5115714;28;20386;-77
2024/02/17 12:10:15;;;;;;;11.20;6.50;;;14.00;89.80;;;;;;5113370;28;20085;-77
2024/02/17 12:12:41;;;;;;;12.23;6.38;;;13.90;89.90;;;;;;5114065;28;20055;-77
2024/02/17 12:15:12;;;;;;;10.30;5.90;;;13.90;90.00;;;;;;5114206;28;20436;-77
2024/02/17 12:17:43;;;;;;;11.88;6.20;;;13.90;90.00;;;;;;5113492;28;20022;-78
2024/02/17 12:20:18;;;;;;;11.05;5.97;;;13.80;90.00;;;;;;5112554;28;20028;-77
2024/02/17 12:22:47;;;;;;;11.88;6.15;;;14.00;90.00;;;;;;5114793;28;20019;-78
2024/02/17 12:25:14;;;;;;;10.23;5.95;;;14.00;89.80;;;;;;5114515;28;20084;-77
2024/02/17 12:27:45;;;;;;;11.23;6.03;;;14.00;89.50;;;;;;5113378;28;20085;-77
2024/02/17 12:30:13;;;;;;;11.02;5.93;;;14.10;89.30;;;;;;5113259;28;20404;-77
2024/02/17 12:32:42;;;;;;;12.60;5.75;;;14.10;89.20;;;;;;5113248;28;20019;-77
2024/02/17 12:35:18;;;;;;;12.50;6.00;;;14.10;89.10;;;;;;5114311;28;20019;-76
2024/02/17 12:37:46;;;;;;;11.63;5.70;;;14.20;89.10;;;;;;5112774;28;20072;-76
2024/02/17 12:40:19;;;;;;;9.43;5.72;;;14.20;89.10;;;;;;5114103;28;20020;-77
2024/02/17 12:42:50;;;;;;;8.93;5.40;;;14.20;89.00;;;;;;5113314;28;20032;-77
2024/02/17 12:45:23;;;;;;;9.23;5.40;;;14.10;89.10;;;;;;5113052;28;20122;-77